createdAt,value
2023-01-17T00:00:12.054Z,95337.22
2023-01-17T00:02:17.454Z,95340.72
2023-01-17T00:04:34.739Z,95337.84
2023-01-17T00:06:51.990Z,95334.00
2023-01-17T00:09:17.259Z,95337.09
2023-01-17T00:11:22.121Z,95337.31
2023-01-17T00:13:27.269Z,95334.41
2023-01-17T00:15:32.682Z,95339.81
2023-01-17T00:17:37.446Z,95343.84
2023-01-17T00:19:54.668Z,95339.19
2023-01-17T00:22:12.029Z,95338.03
2023-01-17T00:24:31.846Z,95333.72
2023-01-17T00:26:36.749Z,95331.34
2023-01-17T00:28:40.726Z,95332.16
2023-01-17T00:30:42.992Z,95325.03
2023-01-17T00:32:44.993Z,95331.66
2023-01-17T00:34:47.141Z,95339.38
2023-01-17T00:36:49.196Z,95339.97
2023-01-17T00:38:51.709Z,95345.31
2023-01-17T00:41:02.580Z,95342.94
2023-01-17T00:43:20.385Z,95353.25
2023-01-17T00:45:37.637Z,95353.56
2023-01-17T00:47:56.902Z,95344.53
2023-01-17T00:50:14.193Z,95347.75
2023-01-17T00:52:31.457Z,95357.53
2023-01-17T00:54:48.853Z,95359.09
2023-01-17T00:57:09.675Z,95367.81
2023-01-17T00:59:26.918Z,95365.44
2023-01-17T01:01:44.440Z,95357.44
2023-01-17T01:04:01.702Z,95383.69
2023-01-17T01:06:19.983Z,95372.22
2023-01-17T01:08:40.608Z,95374.72
2023-01-17T01:10:58.389Z,95376.63
2023-01-17T01:13:18.231Z,95385.81
2023-01-17T01:15:35.552Z,95386.56
2023-01-17T01:17:52.863Z,95384.88
2023-01-17T01:20:10.080Z,95400.81
2023-01-17T01:22:27.609Z,95410.34
2023-01-17T01:24:45.505Z,95411.72
2023-01-17T01:27:02.860Z,95404.28
2023-01-17T01:29:22.822Z,95406.84
2023-01-17T01:31:40.104Z,95401.25
2023-01-17T01:33:44.933Z,95409.16
2023-01-17T01:35:54.356Z,95413.53
2023-01-17T01:37:59.246Z,95419.25
2023-01-17T01:40:04.591Z,95420.13
2023-01-17T01:42:16.321Z,95414.75
2023-01-17T01:44:49.039Z,95417.25
2023-01-17T01:46:54.092Z,95409.66
2023-01-17T01:49:01.764Z,95417.53
2023-01-17T01:51:12.116Z,95417.13
2023-01-17T01:53:17.546Z,95421.56
2023-01-17T01:55:26.744Z,95432.78
2023-01-17T01:57:35.243Z,95434.19
2023-01-17T01:59:44.790Z,95442.06
2023-01-17T02:01:54.377Z,95433.25
2023-01-17T02:04:01.153Z,95435.63
2023-01-17T02:06:15.434Z,95437.47
2023-01-17T02:08:24.189Z,95425.91
2023-01-17T02:10:29.207Z,95427.13
2023-01-17T02:12:34.556Z,95424.38
2023-01-17T02:14:39.404Z,95434.25
2023-01-17T02:17:00.233Z,95430.78
2023-01-17T02:19:29.124Z,95439.72
2023-01-17T02:21:37.941Z,95436.78
2023-01-17T02:24:29.321Z,95443.84
2023-01-17T02:26:53.306Z,95449.75
2023-01-17T02:29:15.004Z,95441.47
2023-01-17T02:31:30.287Z,95446.81
2023-01-17T02:33:42.138Z,95442.69
2023-01-17T02:35:57.405Z,95440.75
2023-01-17T02:38:11.348Z,95443.41
2023-01-17T02:40:21.132Z,95442.50
2023-01-17T02:42:31.690Z,95451.97
2023-01-17T02:44:43.560Z,95445.25
2023-01-17T02:46:55.977Z,95449.22
2023-01-17T02:49:01.280Z,95450.31
2023-01-17T02:51:39.128Z,95452.59
2023-01-17T02:53:55.994Z,95445.34
2023-01-17T02:56:11.511Z,95444.34
2023-01-17T02:58:31.533Z,95439.09
2023-01-17T03:00:43.418Z,95450.13
2023-01-17T03:03:00.439Z,95461.50
2023-01-17T03:05:09.065Z,95451.97
2023-01-17T03:07:18.981Z,95448.44
2023-01-17T03:09:24.713Z,95454.44
2023-01-17T03:11:30.059Z,95456.44
2023-01-17T03:13:34.617Z,95465.97
2023-01-17T03:15:39.524Z,95462.50
2023-01-17T03:17:49.588Z,95474.25
2023-01-17T03:19:57.153Z,95464.78
2023-01-17T03:22:01.970Z,95484.28
2023-01-17T03:24:07.369Z,95490.41
2023-01-17T03:26:12.159Z,95495.25
2023-01-17T03:28:17.005Z,95493.50
2023-01-17T03:30:23.195Z,95490.59
2023-01-17T03:32:28.130Z,95501.53
2023-01-17T03:34:32.968Z,95498.22
2023-01-17T03:36:40.535Z,95495.34
2023-01-17T03:38:45.393Z,95508.94
2023-01-17T03:40:50.304Z,95508.88
2023-01-17T03:42:55.205Z,95508.69
2023-01-17T03:45:00.017Z,95511.53
2023-01-17T03:47:12.073Z,95513.13
2023-01-17T03:49:17.458Z,95522.97
2023-01-17T03:51:22.283Z,95517.03
2023-01-17T03:53:29.776Z,95519.75
2023-01-17T03:55:34.635Z,95517.03
2023-01-17T03:57:39.553Z,95527.03
2023-01-17T03:59:45.113Z,95521.31
2023-01-17T04:01:50.321Z,95517.84
2023-01-17T04:03:55.506Z,95518.50
2023-01-17T04:06:00.132Z,95519.50
2023-01-17T04:08:06.766Z,95516.56
2023-01-17T04:10:14.558Z,95515.06
2023-01-17T04:12:19.538Z,95508.81
2023-01-17T04:14:24.347Z,95520.91
2023-01-17T04:16:31.996Z,95515.41
2023-01-17T04:18:36.979Z,95527.16
2023-01-17T04:20:43.558Z,95507.75
2023-01-17T04:22:49.545Z,95504.44
2023-01-17T04:24:54.330Z,95509.38
2023-01-17T04:27:02.595Z,95514.66
2023-01-17T04:29:07.837Z,95516.50
2023-01-17T04:31:17.061Z,95525.88
2023-01-17T04:33:22.044Z,95528.84
2023-01-17T04:35:27.298Z,95525.63
2023-01-17T04:37:31.854Z,95528.13
2023-01-17T04:39:37.227Z,95523.97
2023-01-17T04:41:41.812Z,95526.44
2023-01-17T04:43:49.220Z,95528.72
2023-01-17T04:45:57.976Z,95534.50
2023-01-17T04:48:05.897Z,95540.03
2023-01-17T04:50:13.557Z,95541.88
2023-01-17T04:52:18.828Z,95537.94
2023-01-17T04:54:23.655Z,95543.09
2023-01-17T04:56:28.456Z,95554.44
2023-01-17T04:58:33.803Z,95551.31
2023-01-17T05:00:40.937Z,95554.78
2023-01-17T05:02:45.820Z,95547.34
2023-01-17T05:04:51.291Z,95560.69
2023-01-17T05:06:56.131Z,95559.59
2023-01-17T05:09:02.994Z,95561.53
2023-01-17T05:11:07.968Z,95564.75
2023-01-17T05:13:12.862Z,95559.09
2023-01-17T05:15:17.737Z,95563.16
2023-01-17T05:17:25.317Z,95562.72
2023-01-17T05:19:30.437Z,95565.56
2023-01-17T05:21:35.213Z,95564.72
2023-01-17T05:23:40.684Z,95566.38
2023-01-17T05:25:45.775Z,95574.66
2023-01-17T05:27:50.668Z,95568.22
2023-01-17T05:29:55.657Z,95552.66
2023-01-17T05:32:00.775Z,95560.03
2023-01-17T05:34:08.024Z,95568.38
2023-01-17T05:36:13.117Z,95571.22
2023-01-17T05:38:18.362Z,95567.66
2023-01-17T05:40:27.887Z,95569.63
2023-01-17T05:42:32.669Z,95570.38
2023-01-17T05:44:38.776Z,95580.13
2023-01-17T05:46:43.765Z,95583.28
2023-01-17T05:48:50.867Z,95588.91
2023-01-17T05:50:58.914Z,95592.81
2023-01-17T05:53:05.776Z,95587.09
2023-01-17T05:55:11.611Z,95588.69
2023-01-17T05:57:18.934Z,95593.97
2023-01-17T05:59:36.461Z,95590.78
2023-01-17T06:01:42.197Z,95594.31
2023-01-17T06:03:46.992Z,95587.78
2023-01-17T06:05:52.943Z,95593.31
2023-01-17T06:08:00.470Z,95586.34
2023-01-17T06:10:05.431Z,95596.34
2023-01-17T06:12:10.468Z,95604.34
2023-01-17T06:14:15.436Z,95608.16
2023-01-17T06:16:20.258Z,95615.25
2023-01-17T06:18:25.176Z,95618.03
2023-01-17T06:20:30.139Z,95618.41
2023-01-17T06:22:35.540Z,95623.66
2023-01-17T06:24:43.198Z,95620.50
2023-01-17T06:26:50.537Z,95619.78
2023-01-17T06:28:55.360Z,95623.00
2023-01-17T06:31:00.272Z,95625.75
2023-01-17T06:33:05.495Z,95615.47
2023-01-17T06:35:10.980Z,95617.19
2023-01-17T06:37:15.852Z,95610.31
2023-01-17T06:39:20.703Z,95609.53
2023-01-17T06:41:28.248Z,95613.28
2023-01-17T06:43:34.440Z,95607.44
2023-01-17T06:45:42.529Z,95606.25
2023-01-17T06:47:48.103Z,95602.59
2023-01-17T06:49:52.948Z,95604.25
2023-01-17T06:51:57.957Z,95600.28
2023-01-17T06:54:02.713Z,95607.53
2023-01-17T06:56:08.528Z,95609.59
2023-01-17T06:58:15.931Z,95610.69
2023-01-17T07:00:21.652Z,95607.47
2023-01-17T07:02:26.540Z,95613.44
2023-01-17T07:04:31.331Z,95611.88
2023-01-17T07:06:38.717Z,95614.44
2023-01-17T07:08:43.534Z,95624.72
2023-01-17T07:10:51.234Z,95637.75
2023-01-17T07:13:01.414Z,95635.06
2023-01-17T07:15:09.921Z,95637.00
2023-01-17T07:17:14.715Z,95644.72
2023-01-17T07:19:19.614Z,95636.28
2023-01-17T07:21:24.528Z,95632.94
2023-01-17T07:23:29.821Z,95633.00
2023-01-17T07:25:34.761Z,95630.53
2023-01-17T07:27:39.581Z,95635.75
2023-01-17T07:29:44.440Z,95641.81
2023-01-17T07:31:52.001Z,95636.75
2023-01-17T07:33:56.795Z,95636.69
2023-01-17T07:36:01.678Z,95633.84
2023-01-17T07:38:11.480Z,95636.28
2023-01-17T07:40:17.501Z,95629.28
2023-01-17T07:42:24.105Z,95619.91
2023-01-17T07:44:29.382Z,95612.44
2023-01-17T07:46:34.207Z,95613.53
2023-01-17T07:48:41.705Z,95611.16
2023-01-17T07:50:47.002Z,95613.22
2023-01-17T07:52:53.034Z,95608.09
2023-01-17T07:54:57.693Z,95609.25
2023-01-17T07:57:02.828Z,95600.03
2023-01-17T07:59:07.636Z,95614.78
2023-01-17T08:01:14.325Z,95600.53
2023-01-17T08:03:20.745Z,95602.34
2023-01-17T08:05:28.722Z,95606.44
2023-01-17T08:07:33.614Z,95610.75
2023-01-17T08:09:38.479Z,95615.78
2023-01-17T08:11:43.334Z,95614.97
2023-01-17T08:13:48.202Z,95610.47
2023-01-17T08:15:54.623Z,95618.13
2023-01-17T08:18:00.472Z,95612.72
2023-01-17T08:20:06.294Z,95615.97
2023-01-17T08:22:14.989Z,95621.25
2023-01-17T08:24:19.938Z,95617.84
2023-01-17T08:26:25.239Z,95625.44
2023-01-17T08:28:30.150Z,95619.16
2023-01-17T08:30:35.184Z,95605.25
2023-01-17T08:32:40.951Z,95603.63
2023-01-17T08:34:45.881Z,95593.53
2023-01-17T08:36:51.112Z,95595.44
2023-01-17T08:38:59.004Z,95596.81
2023-01-17T08:41:04.154Z,95591.03
2023-01-17T08:43:08.804Z,95591.41
2023-01-17T08:45:15.330Z,95584.28
2023-01-17T08:47:20.189Z,95579.03
2023-01-17T08:49:25.885Z,95588.59
2023-01-17T08:51:33.055Z,95590.81
2023-01-17T08:53:38.589Z,95600.69
2023-01-17T08:55:46.493Z,95591.41
2023-01-17T08:57:56.350Z,95591.34
2023-01-17T09:00:01.656Z,95595.81
2023-01-17T09:02:14.883Z,95589.28
2023-01-17T09:04:20.004Z,95592.34
2023-01-17T09:06:24.870Z,95588.81
2023-01-17T09:08:30.581Z,95596.72
2023-01-17T09:10:35.470Z,95598.53
2023-01-17T09:12:43.147Z,95594.72
2023-01-17T09:14:48.069Z,95600.63
2023-01-17T09:16:53.126Z,95598.53
2023-01-17T09:18:58.462Z,95597.88
2023-01-17T09:21:13.176Z,95590.25
2023-01-17T09:23:18.047Z,95593.47
2023-01-17T09:25:22.938Z,95599.81
2023-01-17T09:27:27.894Z,95596.22
2023-01-17T09:29:35.387Z,95590.09
2023-01-17T09:31:40.541Z,95592.63
2023-01-17T09:33:45.161Z,95593.50
2023-01-17T09:35:50.332Z,95595.22
2023-01-17T09:37:57.135Z,95591.03
2023-01-17T09:40:02.112Z,95589.75
2023-01-17T09:42:21.369Z,95585.00
2023-01-17T09:44:30.625Z,95581.81
2023-01-17T09:46:42.321Z,95583.28
2023-01-17T09:48:48.868Z,95588.00
2023-01-17T09:50:57.641Z,95591.31
2023-01-17T09:53:05.634Z,95580.72
2023-01-17T09:55:17.204Z,95590.28
2023-01-17T09:57:39.011Z,95585.81
2023-01-17T10:00:03.194Z,95587.72
2023-01-17T10:02:32.912Z,95587.34
2023-01-17T10:04:56.756Z,95583.69
2023-01-17T10:07:16.215Z,95574.81
2023-01-17T10:09:40.645Z,95573.00
2023-01-17T10:11:59.049Z,95569.50
2023-01-17T10:14:15.698Z,95563.25
2023-01-17T10:16:34.820Z,95562.41
2023-01-17T10:19:07.910Z,95557.53
2023-01-17T10:21:17.320Z,95554.75
2023-01-17T10:23:49.596Z,95548.16
2023-01-17T10:25:55.452Z,95547.69
2023-01-17T10:28:15.448Z,95541.53
2023-01-17T10:30:26.024Z,95555.78
2023-01-17T10:32:35.030Z,95549.34
2023-01-17T10:34:51.076Z,95550.41
2023-01-17T10:37:01.197Z,95545.28
2023-01-17T10:39:20.800Z,95546.81
2023-01-17T10:41:31.218Z,95534.06
2023-01-17T10:43:47.942Z,95536.50
2023-01-17T10:45:56.865Z,95531.75
2023-01-17T10:48:12.195Z,95526.75
2023-01-17T10:50:20.017Z,95528.84
2023-01-17T10:52:39.135Z,95518.09
2023-01-17T10:55:05.253Z,95516.22
2023-01-17T10:57:17.737Z,95516.09
2023-01-17T10:59:31.880Z,95518.25
2023-01-17T11:01:36.956Z,95521.72
2023-01-17T11:03:45.023Z,95526.47
2023-01-17T11:06:19.135Z,95510.31
2023-01-17T11:08:24.284Z,95504.09
2023-01-17T11:10:44.724Z,95506.78
2023-01-17T11:12:50.399Z,95502.88
2023-01-17T11:15:03.144Z,95494.78
2023-01-17T11:17:11.573Z,95493.97
2023-01-17T11:19:20.292Z,95482.31
2023-01-17T11:21:28.682Z,95479.34
2023-01-17T11:23:36.086Z,95481.63
2023-01-17T11:25:41.661Z,95483.09
2023-01-17T11:28:00.851Z,95477.13
2023-01-17T11:30:16.023Z,95469.97
2023-01-17T11:32:32.912Z,95464.28
2023-01-17T11:34:38.649Z,95463.59
2023-01-17T11:36:46.427Z,95463.16
2023-01-17T11:38:59.196Z,95460.59
2023-01-17T11:41:22.119Z,95448.38
2023-01-17T11:43:28.454Z,95441.94
2023-01-17T11:45:34.739Z,95437.75
2023-01-17T11:47:39.619Z,95430.13
2023-01-17T11:49:46.345Z,95429.03
2023-01-17T11:51:56.356Z,95425.38
2023-01-17T11:54:11.800Z,95420.94
2023-01-17T11:56:23.487Z,95418.50
2023-01-17T11:58:30.557Z,95425.22
2023-01-17T12:00:46.043Z,95423.06
2023-01-17T12:03:20.856Z,95418.19
2023-01-17T12:05:42.775Z,95429.25
2023-01-17T12:08:01.045Z,95431.31
2023-01-17T12:10:15.605Z,95437.38
2023-01-17T12:12:41.414Z,95434.16
2023-01-17T12:14:58.964Z,95430.03
2023-01-17T12:17:16.452Z,95425.28
2023-01-17T12:19:36.712Z,95423.66
2023-01-17T12:21:52.414Z,95425.06
2023-01-17T12:24:38.625Z,95431.88
2023-01-17T12:26:50.012Z,95437.53
2023-01-17T12:29:10.121Z,95436.69
2023-01-17T12:31:28.689Z,95437.47
2023-01-17T12:33:41.527Z,95432.78
2023-01-17T12:35:53.020Z,95433.72
2023-01-17T12:38:05.269Z,95426.25
2023-01-17T12:40:26.478Z,95427.47
2023-01-17T12:42:35.918Z,95422.13
2023-01-17T12:44:50.281Z,95414.00
2023-01-17T12:47:02.718Z,95415.41
2023-01-17T12:49:22.509Z,95402.84
2023-01-17T12:51:31.913Z,95389.47
2023-01-17T12:53:44.862Z,95392.59
2023-01-17T12:56:03.051Z,95388.53
2023-01-17T12:58:16.039Z,95385.75
2023-01-17T13:00:23.571Z,95383.81
2023-01-17T13:02:35.215Z,95385.75
2023-01-17T13:04:58.101Z,95387.13
2023-01-17T13:07:11.793Z,95390.66
2023-01-17T13:09:23.554Z,95392.06
2023-01-17T13:11:35.363Z,95395.78
2023-01-17T13:13:41.361Z,95396.59
2023-01-17T13:15:48.154Z,95399.78
2023-01-17T13:17:57.859Z,95394.91
2023-01-17T13:20:10.533Z,95384.25
2023-01-17T13:22:21.877Z,95380.13
2023-01-17T13:24:36.463Z,95375.63
2023-01-17T13:27:02.250Z,95374.06
2023-01-17T13:29:16.707Z,95373.91
2023-01-17T13:31:38.899Z,95379.06
2023-01-17T13:33:53.434Z,95377.75
2023-01-17T13:36:12.521Z,95377.19
2023-01-17T13:38:55.085Z,95367.19
2023-01-17T13:41:05.297Z,95361.63
2023-01-17T13:43:21.170Z,95365.44
2023-01-17T13:45:29.220Z,95365.16
2023-01-17T13:47:44.409Z,95362.91
2023-01-17T13:49:54.051Z,95353.91
2023-01-17T13:52:12.394Z,95357.53
2023-01-17T13:54:35.174Z,95359.41
2023-01-17T13:56:40.041Z,95351.97
2023-01-17T13:59:07.026Z,95347.31
2023-01-17T14:01:14.678Z,95349.09
2023-01-17T14:03:54.313Z,95346.41
2023-01-17T14:06:00.123Z,95334.97
2023-01-17T14:08:07.403Z,95331.56
2023-01-17T14:10:29.932Z,95331.03
2023-01-17T14:12:35.917Z,95322.81
2023-01-17T14:15:01.572Z,95319.41
2023-01-17T14:17:45.047Z,95321.75
2023-01-17T14:19:52.580Z,95316.94
2023-01-17T14:22:25.600Z,95315.88
2023-01-17T14:24:30.691Z,95310.63
2023-01-17T14:26:50.196Z,95311.97
2023-01-17T14:28:55.343Z,95303.09
2023-01-17T14:31:04.126Z,95301.13
2023-01-17T14:33:19.636Z,95291.66
2023-01-17T14:35:26.033Z,95292.59
2023-01-17T14:37:43.707Z,95288.47
2023-01-17T14:39:50.068Z,95286.81
2023-01-17T14:41:55.096Z,95281.53
2023-01-17T14:44:02.295Z,95276.31
2023-01-17T14:46:18.240Z,95272.25
2023-01-17T14:48:25.353Z,95275.59
2023-01-17T14:50:32.137Z,95276.63
2023-01-17T14:52:37.147Z,95279.81
2023-01-17T14:54:50.475Z,95279.81
2023-01-17T14:56:55.313Z,95276.63
2023-01-17T14:59:17.473Z,95273.09
2023-01-17T15:01:25.231Z,95278.44
2023-01-17T15:03:31.649Z,95276.50
2023-01-17T15:05:36.700Z,95276.91
2023-01-17T15:07:41.609Z,95278.44
2023-01-17T15:09:50.266Z,95275.88
2023-01-17T15:11:57.431Z,95272.38
2023-01-17T15:14:05.930Z,95270.31
2023-01-17T15:16:19.712Z,95268.34
2023-01-17T15:18:31.430Z,95272.69
2023-01-17T15:20:37.764Z,95264.22
2023-01-17T15:22:42.710Z,95268.84
2023-01-17T15:24:48.837Z,95268.16
2023-01-17T15:26:54.757Z,95267.22
2023-01-17T15:29:07.779Z,95266.69
2023-01-17T15:31:18.865Z,95268.56
2023-01-17T15:33:23.747Z,95264.63
2023-01-17T15:35:31.277Z,95263.81
2023-01-17T15:37:39.922Z,95266.88
2023-01-17T15:39:44.905Z,95268.72
2023-01-17T15:41:50.322Z,95264.59
2023-01-17T15:43:57.775Z,95273.34
2023-01-17T15:46:05.058Z,95268.94
2023-01-17T15:48:36.327Z,95263.97
2023-01-17T15:50:43.739Z,95264.31
2023-01-17T15:52:53.964Z,95264.38
2023-01-17T15:55:02.188Z,95265.13
2023-01-17T15:57:18.188Z,95257.69
2023-01-17T15:59:30.597Z,95262.00
2023-01-17T16:01:35.669Z,95258.72
2023-01-17T16:03:43.551Z,95262.09
2023-01-17T16:05:52.545Z,95260.25
2023-01-17T16:07:58.877Z,95258.63
2023-01-17T16:10:17.797Z,95262.75
2023-01-17T16:12:22.634Z,95260.38
2023-01-17T16:14:30.683Z,95263.97
2023-01-17T16:16:42.064Z,95256.34
2023-01-17T16:18:47.524Z,95255.22
2023-01-17T16:21:01.268Z,95255.44
2023-01-17T16:23:06.431Z,95259.03
2023-01-17T16:25:16.724Z,95248.81
2023-01-17T16:27:21.682Z,95255.81
2023-01-17T16:29:26.722Z,95255.81
2023-01-17T16:31:31.550Z,95260.13
2023-01-17T16:33:36.398Z,95256.84
2023-01-17T16:35:42.693Z,95267.22
2023-01-17T16:37:52.100Z,95269.28
2023-01-17T16:39:57.235Z,95279.38
2023-01-17T16:42:05.785Z,95283.16
2023-01-17T16:44:10.939Z,95281.13
2023-01-17T16:46:15.976Z,95292.88
2023-01-17T16:48:21.338Z,95292.69
2023-01-17T16:50:27.786Z,95287.34
2023-01-17T16:52:32.711Z,95290.00
2023-01-17T16:54:40.202Z,95291.75
2023-01-17T16:56:45.124Z,95300.41
2023-01-17T16:58:49.930Z,95289.06
2023-01-17T17:00:56.686Z,95286.41
2023-01-17T17:03:01.585Z,95289.59
2023-01-17T17:05:07.477Z,95285.47
2023-01-17T17:07:12.386Z,95290.75
2023-01-17T17:09:18.391Z,95286.59
2023-01-17T17:11:26.507Z,95280.53
2023-01-17T17:13:31.464Z,95281.84
2023-01-17T17:15:36.353Z,95288.84
2023-01-17T17:17:43.175Z,95286.59
2023-01-17T17:19:50.037Z,95283.56
2023-01-17T17:21:54.857Z,95279.34
2023-01-17T17:24:01.922Z,95277.78
2023-01-17T17:26:06.898Z,95278.31
2023-01-17T17:28:15.498Z,95271.69
2023-01-17T17:30:20.655Z,95265.53
2023-01-17T17:32:25.611Z,95269.59
2023-01-17T17:34:34.332Z,95276.28
2023-01-17T17:36:40.211Z,95284.81
2023-01-17T17:38:53.659Z,95278.00
2023-01-17T17:40:58.676Z,95281.59
2023-01-17T17:43:06.011Z,95288.34
2023-01-17T17:45:14.326Z,95284.75
2023-01-17T17:47:19.541Z,95286.31
2023-01-17T17:49:24.097Z,95281.28
2023-01-17T17:51:31.007Z,95282.38
2023-01-17T17:53:36.308Z,95278.25
2023-01-17T17:55:41.140Z,95288.84
2023-01-17T17:57:46.098Z,95288.22
2023-01-17T17:59:50.990Z,95298.72
2023-01-17T18:01:59.783Z,95304.94
2023-01-17T18:04:07.566Z,95299.00
2023-01-17T18:06:16.169Z,95291.06
2023-01-17T18:08:21.556Z,95298.78
2023-01-17T18:10:26.142Z,95299.00
2023-01-17T18:12:30.982Z,95296.50
2023-01-17T18:14:36.273Z,95303.34
2023-01-17T18:16:42.082Z,95298.28
2023-01-17T18:18:51.864Z,95301.34
2023-01-17T18:20:56.734Z,95308.88
2023-01-17T18:23:01.567Z,95308.88
2023-01-17T18:25:13.983Z,95302.06
2023-01-17T18:27:19.420Z,95302.44
2023-01-17T18:29:24.747Z,95295.38
2023-01-17T18:31:31.107Z,95298.41
2023-01-17T18:33:38.743Z,95301.59
2023-01-17T18:36:00.159Z,95304.00
2023-01-17T18:38:05.549Z,95314.28
2023-01-17T18:40:10.692Z,95307.88
2023-01-17T18:42:18.022Z,95302.25
2023-01-17T18:44:23.119Z,95304.75
2023-01-17T18:46:29.265Z,95305.75
2023-01-17T18:48:34.119Z,95303.19
2023-01-17T18:50:38.956Z,95306.69
2023-01-17T18:52:46.377Z,95303.56
2023-01-17T18:54:53.106Z,95300.16
2023-01-17T18:56:58.477Z,95301.16
2023-01-17T18:59:05.835Z,95298.50
2023-01-17T19:01:13.774Z,95299.16
2023-01-17T19:03:19.976Z,95308.44
2023-01-17T19:05:24.814Z,95298.88
2023-01-17T19:07:32.512Z,95296.28
2023-01-17T19:09:40.251Z,95303.19
2023-01-17T19:11:46.322Z,95299.53
2023-01-17T19:13:53.558Z,95302.75
2023-01-17T19:16:02.813Z,95305.13
2023-01-17T19:18:08.222Z,95311.81
2023-01-17T19:20:15.782Z,95311.72
2023-01-17T19:22:21.757Z,95318.97
2023-01-17T19:24:27.373Z,95327.06
2023-01-17T19:26:34.836Z,95328.63
2023-01-17T19:28:41.389Z,95328.63
2023-01-17T19:30:46.305Z,95328.97
2023-01-17T19:32:53.904Z,95334.66
2023-01-17T19:34:58.753Z,95330.81
2023-01-17T19:37:03.700Z,95340.72
2023-01-17T19:39:10.825Z,95337.50
2023-01-17T19:41:17.593Z,95338.84
2023-01-17T19:43:25.586Z,95340.34
2023-01-17T19:45:30.500Z,95337.22
2023-01-17T19:47:35.382Z,95336.78
2023-01-17T19:49:42.541Z,95338.78
2023-01-17T19:51:50.343Z,95338.44
2023-01-17T19:53:55.657Z,95335.03
2023-01-17T19:56:00.784Z,95333.41
2023-01-17T19:58:05.601Z,95330.00
2023-01-17T20:00:17.995Z,95330.47
2023-01-17T20:02:23.224Z,95343.31
2023-01-17T20:04:27.923Z,95337.63
2023-01-17T20:06:34.757Z,95344.69
2023-01-17T20:08:40.208Z,95342.75
2023-01-17T20:10:46.287Z,95331.91
2023-01-17T20:12:52.497Z,95332.19
2023-01-17T20:14:57.469Z,95338.78
2023-01-17T20:17:05.070Z,95331.72
2023-01-17T20:19:12.987Z,95333.09
2023-01-17T20:21:19.984Z,95328.28
2023-01-17T20:23:24.840Z,95341.59
2023-01-17T20:25:29.831Z,95340.22
2023-01-17T20:27:34.924Z,95347.44
2023-01-17T20:29:42.576Z,95344.19
2023-01-17T20:31:52.584Z,95345.94
2023-01-17T20:34:00.074Z,95347.16
2023-01-17T20:36:10.615Z,95349.00
2023-01-17T20:38:15.838Z,95343.19
2023-01-17T20:40:23.284Z,95344.28
2023-01-17T20:42:28.275Z,95350.59
2023-01-17T20:44:34.458Z,95348.22
2023-01-17T20:46:41.631Z,95347.69
2023-01-17T20:48:47.766Z,95350.16
2023-01-17T20:50:55.404Z,95343.47
2023-01-17T20:53:00.287Z,95335.94
2023-01-17T20:55:05.072Z,95338.59
2023-01-17T20:57:09.966Z,95338.59
2023-01-17T20:59:16.839Z,95342.53
2023-01-17T21:01:22.203Z,95341.78
2023-01-17T21:03:29.005Z,95349.13
2023-01-17T21:05:33.852Z,95349.25
2023-01-17T21:07:41.651Z,95349.78
2023-01-17T21:09:46.440Z,95344.47
2023-01-17T21:11:51.933Z,95340.16
2023-01-17T21:13:57.497Z,95349.44
2023-01-17T21:16:02.728Z,95337.19
2023-01-17T21:18:07.294Z,95340.59
2023-01-17T21:20:16.818Z,95342.06
2023-01-17T21:22:21.689Z,95344.53
2023-01-17T21:24:29.468Z,95344.25
2023-01-17T21:26:34.545Z,95339.66
2023-01-17T21:28:40.979Z,95338.72
2023-01-17T21:30:46.037Z,95338.72
2023-01-17T21:32:50.836Z,95342.84
2023-01-17T21:34:55.724Z,95332.09
2023-01-17T21:37:00.599Z,95334.97
2023-01-17T21:39:09.587Z,95331.97
2023-01-17T21:41:17.203Z,95339.03
2023-01-17T21:43:22.008Z,95334.19
2023-01-17T21:45:32.256Z,95329.94
2023-01-17T21:47:37.201Z,95328.50
2023-01-17T21:49:42.019Z,95333.56
2023-01-17T21:51:59.693Z,95338.59
2023-01-17T21:54:04.596Z,95334.56
2023-01-17T21:56:25.986Z,95337.66
2023-01-17T21:58:45.943Z,95334.06
2023-01-17T22:01:07.703Z,95339.88
2023-01-17T22:03:12.626Z,95335.56
2023-01-17T22:05:18.912Z,95338.41
2023-01-17T22:07:25.333Z,95332.50
2023-01-17T22:09:30.138Z,95339.97
2023-01-17T22:11:34.951Z,95344.84
2023-01-17T22:13:44.182Z,95344.75
2023-01-17T22:15:59.793Z,95346.56
2023-01-17T22:18:04.689Z,95348.63
2023-01-17T22:20:11.822Z,95351.66
2023-01-17T22:22:16.692Z,95343.38
2023-01-17T22:24:21.742Z,95352.03
2023-01-17T22:26:28.612Z,95348.63
2023-01-17T22:28:34.712Z,95338.25
2023-01-17T22:30:42.633Z,95340.72
2023-01-17T22:32:47.811Z,95336.16
2023-01-17T22:34:52.586Z,95338.53
2023-01-17T22:36:57.572Z,95341.81
2023-01-17T22:39:03.131Z,95341.00
2023-01-17T22:41:10.632Z,95345.13
2023-01-17T22:43:15.612Z,95338.59
2023-01-17T22:45:20.583Z,95343.06
2023-01-17T22:47:28.004Z,95333.97
2023-01-17T22:49:32.929Z,95333.69
2023-01-17T22:51:40.758Z,95332.44
2023-01-17T22:53:47.990Z,95338.16
2023-01-17T22:56:01.614Z,95330.44
2023-01-17T22:58:06.916Z,95334.84
2023-01-17T23:00:14.733Z,95332.06
2023-01-17T23:02:20.371Z,95332.31
2023-01-17T23:04:28.409Z,95327.44
2023-01-17T23:06:34.548Z,95325.31
2023-01-17T23:08:40.032Z,95321.44
2023-01-17T23:10:57.493Z,95321.75
2023-01-17T23:13:02.438Z,95321.38
2023-01-17T23:15:20.631Z,95322.31
2023-01-17T23:17:39.485Z,95326.53
2023-01-17T23:19:51.122Z,95325.28
2023-01-17T23:22:12.166Z,95330.81
2023-01-17T23:24:17.075Z,95328.91
2023-01-17T23:26:21.825Z,95325.34
2023-01-17T23:28:24.121Z,95330.63
2023-01-17T23:30:30.262Z,95326.56
2023-01-17T23:32:35.074Z,95328.75
2023-01-17T23:34:39.993Z,95336.66
2023-01-17T23:36:47.414Z,95338.31
2023-01-17T23:38:49.756Z,95332.69
2023-01-17T23:41:07.911Z,95332.59
2023-01-17T23:43:28.432Z,95330.03
2023-01-17T23:45:33.296Z,95328.53
2023-01-17T23:47:38.123Z,95326.09
2023-01-17T23:49:43.644Z,95318.56
2023-01-17T23:51:53.048Z,95325.66
2023-01-17T23:54:05.486Z,95327.47
2023-01-17T23:56:16.758Z,95338.69
2023-01-17T23:58:23.261Z,95323.53
